sensor_id;sensor_type;location;lat;lon;timestamp;pressure;altitude;pressure_sealevel;temperature;humidity
60015;BME280;45867;52.480;6.056;2023-08-01T00:00:36;99533.91;;;14.87;100.00
60015;BME280;45867;52.480;6.056;2023-08-01T00:03:04;99520.63;;;14.79;100.00
60015;BME280;45867;52.480;6.056;2023-08-01T00:05:34;99506.91;;;14.68;100.00
60015;BME280;45867;52.480;6.056;2023-08-01T00:08:00;99509.50;;;14.77;100.00
60015;BME280;45867;52.480;6.056;2023-08-01T00:10:27;99516.59;;;14.73;100.00
60015;BME280;45867;52.480;6.056;2023-08-01T00:13:11;99486.16;;;14.53;100.00
60015;BME280;45867;52.480;6.056;2023-08-01T00:15:38;99505.75;;;14.57;100.00
60015;BME280;45867;52.480;6.056;2023-08-01T00:18:08;99518.22;;;14.65;100.00
60015;BME280;45867;52.480;6.056;2023-08-01T00:20:37;99504.66;;;14.49;100.00
60015;BME280;45867;52.480;6.056;2023-08-01T00:23:04;99505.44;;;14.50;100.00
60015;BME280;45867;52.480;6.056;2023-08-01T00:25:30;99501.22;;;14.49;100.00
60015;BME280;45867;52.480;6.056;2023-08-01T00:27:57;99526.41;;;14.60;100.00
60015;BME280;45867;52.480;6.056;2023-08-01T00:30:26;99513.28;;;14.55;100.00
60015;BME280;45867;52.480;6.056;2023-08-01T00:32:53;99496.84;;;14.44;100.00
60015;BME280;45867;52.480;6.056;2023-08-01T00:35:25;99518.59;;;14.55;100.00
60015;BME280;45867;52.480;6.056;2023-08-01T00:38:03;99486.50;;;14.42;100.00
60015;BME280;45867;52.480;6.056;2023-08-01T00:40:37;99483.44;;;14.32;100.00
60015;BME280;45867;52.480;6.056;2023-08-01T00:43:09;99492.03;;;14.37;100.00
60015;BME280;45867;52.480;6.056;2023-08-01T00:45:36;99520.97;;;14.48;100.00
60015;BME280;45867;52.480;6.056;2023-08-01T00:48:03;99498.78;;;14.35;100.00
60015;BME280;45867;52.480;6.056;2023-08-01T00:50:47;99500.84;;;14.29;100.00
60015;BME280;45867;52.480;6.056;2023-08-01T00:53:14;99503.03;;;14.36;100.00
60015;BME280;45867;52.480;6.056;2023-08-01T00:55:43;99509.25;;;14.40;100.00
60015;BME280;45867;52.480;6.056;2023-08-01T00:58:12;99499.59;;;14.27;100.00
60015;BME280;45867;52.480;6.056;2023-08-01T01:00:39;99495.56;;;14.20;100.00
60015;BME280;45867;52.480;6.056;2023-08-01T01:03:12;99474.50;;;14.07;100.00
60015;BME280;45867;52.480;6.056;2023-08-01T01:05:53;99488.16;;;14.05;100.00
60015;BME280;45867;52.480;6.056;2023-08-01T01:08:38;99489.72;;;14.06;100.00
60015;BME280;45867;52.480;6.056;2023-08-01T01:11:04;99487.69;;;14.03;100.00
60015;BME280;45867;52.480;6.056;2023-08-01T01:13:33;99473.03;;;13.88;100.00
60015;BME280;45867;52.480;6.056;2023-08-01T01:16:00;99469.31;;;13.81;100.00
60015;BME280;45867;52.480;6.056;2023-08-01T01:18:26;99469.63;;;13.79;100.00
60015;BME280;45867;52.480;6.056;2023-08-01T01:20:53;99472.75;;;13.81;100.00
60015;BME280;45867;52.480;6.056;2023-08-01T01:23:21;99488.56;;;13.86;100.00
60015;BME280;45867;52.480;6.056;2023-08-01T01:25:49;99474.06;;;13.75;100.00
60015;BME280;45867;52.480;6.056;2023-08-01T01:28:22;99473.56;;;13.73;100.00
60015;BME280;45867;52.480;6.056;2023-08-01T01:30:52;99458.25;;;13.61;100.00
60015;BME280;45867;52.480;6.056;2023-08-01T01:33:42;99463.09;;;13.68;100.00
60015;BME280;45867;52.480;6.056;2023-08-01T01:36:09;99461.75;;;13.53;100.00
60015;BME280;45867;52.480;6.056;2023-08-01T01:38:36;99485.81;;;13.65;100.00
60015;BME280;45867;52.480;6.056;2023-08-01T01:41:05;99494.75;;;13.61;100.00
60015;BME280;45867;52.480;6.056;2023-08-01T01:43:32;99490.84;;;13.58;100.00
60015;BME280;45867;52.480;6.056;2023-08-01T01:46:04;99470.88;;;13.43;100.00
60015;BME280;45867;52.480;6.056;2023-08-01T01:48:36;99500.56;;;13.54;100.00
60015;BME280;45867;52.480;6.056;2023-08-01T01:51:07;99470.13;;;13.34;100.00
60015;BME280;45867;52.480;6.056;2023-08-01T01:53:33;99476.53;;;13.33;100.00
60015;BME280;45867;52.480;6.056;2023-08-01T01:56:00;99504.22;;;13.41;100.00
60015;BME280;45867;52.480;6.056;2023-08-01T01:58:29;99485.44;;;13.28;100.00
60015;BME280;45867;52.480;6.056;2023-08-01T02:00:58;99478.22;;;13.20;100.00
60015;BME280;45867;52.480;6.056;2023-08-01T02:03:27;99486.38;;;13.32;100.00
60015;BME280;45867;52.480;6.056;2023-08-01T02:05:56;99494.97;;;13.38;100.00
60015;BME280;45867;52.480;6.056;2023-08-01T02:08:27;99505.00;;;13.32;100.00
60015;BME280;45867;52.480;6.056;2023-08-01T02:10:53;99509.22;;;13.33;100.00
60015;BME280;45867;52.480;6.056;2023-08-01T02:13:21;99499.56;;;13.29;100.00
60015;BME280;45867;52.480;6.056;2023-08-01T02:15:50;99503.28;;;13.28;100.00
60015;BME280;45867;52.480;6.056;2023-08-01T02:18:17;99502.00;;;13.25;100.00
60015;BME280;45867;52.480;6.056;2023-08-01T02:20:43;99493.56;;;13.15;100.00
60015;BME280;45867;52.480;6.056;2023-08-01T02:23:12;99484.53;;;13.07;100.00
60015;BME280;45867;52.480;6.056;2023-08-01T02:28:28;99500.31;;;13.21;100.00
60015;BME280;45867;52.480;6.056;2023-08-01T02:30:59;99478.41;;;13.06;100.00
60015;BME280;45867;52.480;6.056;2023-08-01T02:33:26;99500.31;;;13.21;100.00
60015;BME280;45867;52.480;6.056;2023-08-01T02:35:56;99489.53;;;13.08;100.00
60015;BME280;45867;52.480;6.056;2023-08-01T02:38:22;99488.59;;;13.13;100.00
60015;BME280;45867;52.480;6.056;2023-08-01T02:40:51;99495.31;;;13.19;100.00
60015;BME280;45867;52.480;6.056;2023-08-01T02:43:22;99490.31;;;13.18;100.00
60015;BME280;45867;52.480;6.056;2023-08-01T02:45:51;99481.53;;;13.08;100.00
60015;BME280;45867;52.480;6.056;2023-08-01T02:48:33;99495.31;;;13.19;100.00
60015;BME280;45867;52.480;6.056;2023-08-01T02:51:00;99481.38;;;13.14;100.00
60015;BME280;45867;52.480;6.056;2023-08-01T02:53:26;99487.47;;;13.14;100.00
60015;BME280;45867;52.480;6.056;2023-08-01T02:55:55;99483.75;;;13.15;100.00
60015;BME280;45867;52.480;6.056;2023-08-01T02:58:27;99467.78;;;13.06;100.00
60015;BME280;45867;52.480;6.056;2023-08-01T03:00:53;99469.66;;;13.23;100.00
60015;BME280;45867;52.480;6.056;2023-08-01T03:03:47;99481.69;;;13.21;100.00
60015;BME280;45867;52.480;6.056;2023-08-01T03:06:14;99487.31;;;13.19;100.00
60015;BME280;45867;52.480;6.056;2023-08-01T03:08:45;99460.75;;;13.02;100.00
60015;BME280;45867;52.480;6.056;2023-08-01T03:11:14;99482.50;;;13.13;100.00
60015;BME280;45867;52.480;6.056;2023-08-01T03:13:40;99475.44;;;13.08;100.00
60015;BME280;45867;52.480;6.056;2023-08-01T03:16:07;99496.41;;;13.27;100.00
60015;BME280;45867;52.480;6.056;2023-08-01T03:18:33;99507.53;;;13.29;100.00
60015;BME280;45867;52.480;6.056;2023-08-01T03:21:03;99479.34;;;13.10;100.00
60015;BME280;45867;52.480;6.056;2023-08-01T03:23:33;99492.00;;;13.22;100.00
60015;BME280;45867;52.480;6.056;2023-08-01T03:26:05;99500.81;;;13.31;100.00
60015;BME280;45867;52.480;6.056;2023-08-01T03:28:32;99506.56;;;13.33;100.00
60015;BME280;45867;52.480;6.056;2023-08-01T03:31:04;99507.34;;;13.43;100.00
60015;BME280;45867;52.480;6.056;2023-08-01T03:33:48;99510.91;;;13.47;100.00
60015;BME280;45867;52.480;6.056;2023-08-01T03:36:21;99488.88;;;13.38;100.00
60015;BME280;45867;52.480;6.056;2023-08-01T03:39:29;99482.63;;;13.42;100.00
60015;BME280;45867;52.480;6.056;2023-08-01T03:42:46;99502.28;;;13.59;100.00
60015;BME280;45867;52.480;6.056;2023-08-01T03:51:31;99477.56;;;13.49;100.00
60015;BME280;45867;52.480;6.056;2023-08-01T03:53:57;99503.03;;;13.68;100.00
60015;BME280;45867;52.480;6.056;2023-08-01T03:56:38;99445.16;;;13.56;100.00
60015;BME280;45867;52.480;6.056;2023-08-01T03:59:06;99452.94;;;13.61;100.00
60015;BME280;45867;52.480;6.056;2023-08-01T04:01:32;99463.09;;;13.68;100.00
60015;BME280;45867;52.480;6.056;2023-08-01T04:03:59;99449.78;;;13.68;100.00
60015;BME280;45867;52.480;6.056;2023-08-01T04:06:28;99432.94;;;13.55;100.00
60015;BME280;45867;52.480;6.056;2023-08-01T04:09:03;99454.19;;;13.64;100.00
60015;BME280;45867;52.480;6.056;2023-08-01T04:11:37;99456.38;;;13.70;100.00
60015;BME280;45867;52.480;6.056;2023-08-01T04:14:19;99459.50;;;13.72;100.00
60015;BME280;45867;52.480;6.056;2023-08-01T04:16:48;99441.34;;;13.66;100.00
60015;BME280;45867;52.480;6.056;2023-08-01T04:19:14;99439.50;;;13.58;100.00
60015;BME280;45867;52.480;6.056;2023-08-01T04:21:41;99440.28;;;13.58;100.00
60015;BME280;45867;52.480;6.056;2023-08-01T04:24:08;99465.91;;;13.71;100.00
60015;BME280;45867;52.480;6.056;2023-08-01T04:26:35;99452.13;;;13.69;100.00
60015;BME280;45867;52.480;6.056;2023-08-01T04:29:11;99435.47;;;13.51;100.00
60015;BME280;45867;52.480;6.056;2023-08-01T04:31:38;99440.13;;;13.54;100.00
60015;BME280;45867;52.480;6.056;2023-08-01T04:34:10;99454.00;;;13.69;100.00
60015;BME280;45867;52.480;6.056;2023-08-01T04:36:36;99436.38;;;13.55;100.00
60015;BME280;45867;52.480;6.056;2023-08-01T04:39:11;99438.72;;;13.57;100.00
60015;BME280;45867;52.480;6.056;2023-08-01T04:42:05;99447.44;;;13.66;100.00
60015;BME280;45867;52.480;6.056;2023-08-01T04:44:46;99442.63;;;13.60;100.00
60015;BME280;45867;52.480;6.056;2023-08-01T04:47:13;99452.75;;;13.66;100.00
60015;BME280;45867;52.480;6.056;2023-08-01T04:49:40;99455.72;;;13.73;100.00
60015;BME280;45867;52.480;6.056;2023-08-01T04:52:08;99441.97;;;13.63;100.00
60015;BME280;45867;52.480;6.056;2023-08-01T04:54:35;99442.50;;;13.56;100.00
60015;BME280;45867;52.480;6.056;2023-08-01T04:57:05;99433.72;;;13.55;100.00
60015;BME280;45867;52.480;6.056;2023-08-01T04:59:33;99468.03;;;13.87;100.00
60015;BME280;45867;52.480;6.056;2023-08-01T05:02:02;99450.09;;;13.75;100.00
60015;BME280;45867;52.480;6.056;2023-08-01T05:04:40;99480.41;;;13.91;100.00
60015;BME280;45867;52.480;6.056;2023-08-01T05:07:06;99478.50;;;13.92;100.00
60015;BME280;45867;52.480;6.056;2023-08-01T05:09:33;99493.31;;;14.02;100.00
60015;BME280;45867;52.480;6.056;2023-08-01T05:11:59;99485.91;;;13.86;100.00
60015;BME280;45867;52.480;6.056;2023-08-01T05:14:44;99503.06;;;13.97;100.00
60015;BME280;45867;52.480;6.056;2023-08-01T05:17:11;99507.63;;;13.97;100.00
60015;BME280;45867;52.480;6.056;2023-08-01T05:19:59;99503.72;;;13.86;100.00
60015;BME280;45867;52.480;6.056;2023-08-01T05:22:27;99483.50;;;13.93;100.00
60015;BME280;45867;52.480;6.056;2023-08-01T05:25:03;99507.38;;;13.81;100.00
60015;BME280;45867;52.480;6.056;2023-08-01T05:27:52;99478.34;;;13.59;100.00
60015;BME280;45867;52.480;6.056;2023-08-01T05:30:23;99492.56;;;13.63;100.00
60015;BME280;45867;52.480;6.056;2023-08-01T05:33:34;99518.72;;;13.52;100.00
60015;BME280;45867;52.480;6.056;2023-08-01T05:36:38;99436.81;;;13.10;100.00
60015;BME280;45867;52.480;6.056;2023-08-01T05:39:37;99442.44;;;13.09;100.00
60015;BME280;45867;52.480;6.056;2023-08-01T05:42:48;99472.78;;;13.17;100.00
60015;BME280;45867;52.480;6.056;2023-08-01T05:45:35;99471.84;;;12.95;100.00
60015;BME280;45867;52.480;6.056;2023-08-01T05:48:35;99472.63;;;12.96;100.00
60015;BME280;45867;52.480;6.056;2023-08-01T05:55:01;99476.69;;;13.10;100.00
60015;BME280;45867;52.480;6.056;2023-08-01T06:01:17;99498.91;;;13.32;100.00
60015;BME280;45867;52.480;6.056;2023-08-01T06:11:23;99482.34;;;13.26;100.00
60015;BME280;45867;52.480;6.056;2023-08-01T06:14:50;99516.06;;;13.52;100.00
60015;BME280;45867;52.480;6.056;2023-08-01T06:17:36;99508.88;;;13.52;100.00
60015;BME280;45867;52.480;6.056;2023-08-01T06:20:17;99505.22;;;13.66;100.00
60015;BME280;45867;52.480;6.056;2023-08-01T06:29:22;99498.09;;;13.87;100.00
60015;BME280;45867;52.480;6.056;2023-08-01T06:35:42;99509.25;;;14.10;100.00
60015;BME280;45867;52.480;6.056;2023-08-01T06:56:13;99513.91;;;14.73;100.00
60015;BME280;45867;52.480;6.056;2023-08-01T06:58:56;99537.34;;;14.88;100.00
60015;BME280;45867;52.480;6.056;2023-08-01T08:04:49;98961.88;;;17.41;100.00
60015;BME280;45867;52.480;6.056;2023-08-01T10:07:37;99208.22;;;16.42;100.00
60015;BME280;45867;52.480;6.056;2023-08-01T10:39:07;99502.78;;;15.58;100.00
60015;BME280;45867;52.480;6.056;2023-08-01T11:22:15;99384.97;;;17.92;100.00
60015;BME280;45867;52.480;6.056;2023-08-01T12:15:35;99393.56;;;17.66;100.00
60015;BME280;45867;52.480;6.056;2023-08-01T12:24:58;99286.06;;;18.45;100.00
60015;BME280;45867;52.480;6.056;2023-08-01T12:31:35;99313.88;;;17.43;100.00
60015;BME280;45867;52.480;6.056;2023-08-01T12:37:36;99362.31;;;17.06;100.00
60015;BME280;45867;52.480;6.056;2023-08-01T12:43:36;99280.91;;;19.59;100.00
60015;BME280;45867;52.480;6.056;2023-08-01T12:53:47;99361.44;;;17.50;100.00
60015;BME280;45867;52.480;6.056;2023-08-01T12:56:34;99449.13;;;17.53;100.00
60015;BME280;45867;52.480;6.056;2023-08-01T12:59:06;99475.22;;;17.72;100.00
60015;BME280;45867;52.480;6.056;2023-08-01T13:01:33;99449.63;;;18.06;100.00
60015;BME280;45867;52.480;6.056;2023-08-01T13:04:10;99415.88;;;19.48;100.00
60015;BME280;45867;52.480;6.056;2023-08-01T13:06:44;99321.38;;;20.30;100.00
60015;BME280;45867;52.480;6.056;2023-08-01T13:09:11;99255.91;;;21.04;100.00
60015;BME280;45867;52.480;6.056;2023-08-01T13:11:37;98916.84;;;20.59;100.00
60015;BME280;45867;52.480;6.056;2023-08-01T13:14:04;99109.66;;;20.93;100.00
60015;BME280;45867;52.480;6.056;2023-08-01T13:16:30;99133.47;;;20.87;100.00
60015;BME280;45867;52.480;6.056;2023-08-01T13:18:57;99129.91;;;20.69;100.00
60015;BME280;45867;52.480;6.056;2023-08-01T13:21:29;99180.75;;;19.92;100.00
60015;BME280;45867;52.480;6.056;2023-08-01T13:24:00;99155.31;;;19.52;100.00
60015;BME280;45867;52.480;6.056;2023-08-01T13:26:47;99180.56;;;19.14;100.00
60015;BME280;45867;52.480;6.056;2023-08-01T13:29:22;99123.56;;;18.71;100.00
60015;BME280;45867;52.480;6.056;2023-08-01T13:32:04;99104.09;;;18.47;100.00
60015;BME280;45867;52.480;6.056;2023-08-01T13:34:43;99074.53;;;18.17;100.00
60015;BME280;45867;52.480;6.056;2023-08-01T13:37:41;99040.44;;;18.17;100.00
60015;BME280;45867;52.480;6.056;2023-08-01T13:40:14;99051.06;;;18.37;100.00
60015;BME280;45867;52.480;6.056;2023-08-01T13:42:48;99026.66;;;18.19;100.00
60015;BME280;45867;52.480;6.056;2023-08-01T13:45:30;99025.19;;;18.52;100.00
60015;BME280;45867;52.480;6.056;2023-08-01T13:48:27;99052.47;;;18.84;100.00
60015;BME280;45867;52.480;6.056;2023-08-01T13:51:19;99116.63;;;18.93;100.00
60015;BME280;45867;52.480;6.056;2023-08-01T13:54:05;99154.28;;;18.73;100.00
60015;BME280;45867;52.480;6.056;2023-08-01T13:56:46;99155.63;;;18.60;100.00
60015;BME280;45867;52.480;6.056;2023-08-01T13:59:43;99186.22;;;18.55;100.00
60015;BME280;45867;52.480;6.056;2023-08-01T14:02:29;99131.16;;;19.18;100.00
60015;BME280;45867;52.480;6.056;2023-08-01T14:04:58;99178.25;;;20.54;100.00
60015;BME280;45867;52.480;6.056;2023-08-01T14:07:36;99196.03;;;20.25;100.00
60015;BME280;45867;52.480;6.056;2023-08-01T14:10:13;99225.44;;;19.70;100.00
60015;BME280;45867;52.480;6.056;2023-08-01T14:12:40;99219.44;;;19.23;100.00
60015;BME280;45867;52.480;6.056;2023-08-01T14:15:12;99204.19;;;19.31;100.00
60015;BME280;45867;52.480;6.056;2023-08-01T14:17:45;99201.75;;;18.92;100.00
60015;BME280;45867;52.480;6.056;2023-08-01T14:20:17;99180.06;;;18.78;100.00
60015;BME280;45867;52.480;6.056;2023-08-01T14:22:47;99218.91;;;19.14;100.00
60015;BME280;45867;52.480;6.056;2023-08-01T14:25:23;99231.25;;;18.92;100.00
60015;BME280;45867;52.480;6.056;2023-08-01T14:27:57;99242.59;;;18.59;100.00
60015;BME280;45867;52.480;6.056;2023-08-01T14:30:29;99258.22;;;18.53;100.00
60015;BME280;45867;52.480;6.056;2023-08-01T14:33:00;99232.81;;;18.24;100.00
60015;BME280;45867;52.480;6.056;2023-08-01T14:35:30;99190.63;;;17.98;100.00
60015;BME280;45867;52.480;6.056;2023-08-01T14:38:08;99141.09;;;16.95;100.00
60015;BME280;45867;52.480;6.056;2023-08-01T14:40:42;99012.41;;;15.94;100.00
60015;BME280;45867;52.480;6.056;2023-08-01T14:43:36;98763.75;;;15.48;100.00
60015;BME280;45867;52.480;6.056;2023-08-01T14:46:05;98613.16;;;15.29;100.00
60015;BME280;45867;52.480;6.056;2023-08-01T14:48:43;98562.69;;;15.83;100.00
60015;BME280;45867;52.480;6.056;2023-08-01T14:55:00;98487.94;;;16.39;100.00
60015;BME280;45867;52.480;6.056;2023-08-01T14:57:49;98457.63;;;16.28;100.00
60015;BME280;45867;52.480;6.056;2023-08-01T15:01:03;98432.84;;;16.31;100.00
60015;BME280;45867;52.480;6.056;2023-08-01T15:03:39;98436.59;;;16.53;100.00
60015;BME280;45867;52.480;6.056;2023-08-01T15:06:58;98416.69;;;16.51;100.00
60015;BME280;45867;52.480;6.056;2023-08-01T15:09:57;98434.31;;;16.55;100.00
60015;BME280;45867;52.480;6.056;2023-08-01T15:12:35;98408.53;;;17.07;100.00
60015;BME280;45867;52.480;6.056;2023-08-01T15:15:17;98381.31;;;16.98;100.00
60015;BME280;45867;52.480;6.056;2023-08-01T15:18:08;98382.25;;;17.20;100.00
60015;BME280;45867;52.480;6.056;2023-08-01T15:20:48;98368.59;;;17.33;100.00
60015;BME280;45867;52.480;6.056;2023-08-01T15:23:19;98384.00;;;17.46;100.00
60015;BME280;45867;52.480;6.056;2023-08-01T15:25:56;98388.13;;;17.37;100.00
60015;BME280;45867;52.480;6.056;2023-08-01T15:28:43;98426.47;;;17.07;100.00
60015;BME280;45867;52.480;6.056;2023-08-01T15:31:13;98437.50;;;16.98;100.00
60015;BME280;45867;52.480;6.056;2023-08-01T15:33:49;98464.81;;;17.18;100.00
60015;BME280;45867;52.480;6.056;2023-08-01T16:12:20;98603.53;;;17.13;100.00
60015;BME280;45867;52.480;6.056;2023-08-01T16:15:06;98604.50;;;16.97;100.00
60015;BME280;45867;52.480;6.056;2023-08-01T16:18:08;98622.94;;;17.02;100.00
60015;BME280;45867;52.480;6.056;2023-08-01T16:20:46;98582.88;;;16.79;100.00
60015;BME280;45867;52.480;6.056;2023-08-01T16:23:15;98590.16;;;16.82;100.00
60015;BME280;45867;52.480;6.056;2023-08-01T16:29:03;98563.31;;;16.49;100.00
60015;BME280;45867;52.480;6.056;2023-08-01T16:31:45;98543.69;;;16.37;100.00
60015;BME280;45867;52.480;6.056;2023-08-01T16:34:21;98552.44;;;16.11;100.00
60015;BME280;45867;52.480;6.056;2023-08-01T16:54:42;98558.84;;;15.80;100.00
60015;BME280;45867;52.480;6.056;2023-08-01T16:57:08;98551.81;;;15.72;100.00
60015;BME280;45867;52.480;6.056;2023-08-01T17:00:07;98560.09;;;15.67;100.00
60015;BME280;45867;52.480;6.056;2023-08-01T17:02:50;98575.97;;;15.79;100.00
60015;BME280;45867;52.480;6.056;2023-08-01T17:05:44;98567.84;;;15.72;100.00
60015;BME280;45867;52.480;6.056;2023-08-01T17:08:16;98553.50;;;15.80;100.00
60015;BME280;45867;52.480;6.056;2023-08-01T17:11:08;98546.97;;;15.78;100.00
60015;BME280;45867;52.480;6.056;2023-08-01T17:14:02;98537.94;;;15.86;100.00
60015;BME280;45867;52.480;6.056;2023-08-01T17:20:10;98522.50;;;15.75;100.00
60015;BME280;45867;52.480;6.056;2023-08-01T17:22:47;98540.00;;;15.73;100.00
60015;BME280;45867;52.480;6.056;2023-08-01T17:25:38;98518.84;;;15.64;100.00
60015;BME280;45867;52.480;6.056;2023-08-01T17:31:45;98548.91;;;15.38;100.00
60015;BME280;45867;52.480;6.056;2023-08-01T17:34:40;98597.16;;;15.10;100.00
60015;BME280;45867;52.480;6.056;2023-08-01T17:37:08;98622.13;;;15.02;100.00
60015;BME280;45867;52.480;6.056;2023-08-01T17:39:57;98626.16;;;14.76;100.00
60015;BME280;45867;52.480;6.056;2023-08-01T17:42:37;98613.72;;;14.49;100.00
60015;BME280;45867;52.480;6.056;2023-08-01T17:45:38;99054.88;;;14.71;100.00
60015;BME280;45867;52.480;6.056;2023-08-01T17:48:49;99131.06;;;14.47;100.00
60015;BME280;45867;52.480;6.056;2023-08-01T17:51:29;99790.63;;;14.67;100.00
60015;BME280;45867;52.480;6.056;2023-08-01T17:54:00;99781.88;;;14.58;100.00
60015;BME280;45867;52.480;6.056;2023-08-01T17:56:26;99796.91;;;14.71;100.00
60015;BME280;45867;52.480;6.056;2023-08-01T17:58:59;99787.75;;;14.81;100.00
60015;BME280;45867;52.480;6.056;2023-08-01T18:04:45;99798.41;;;15.28;100.00
60015;BME280;45867;52.480;6.056;2023-08-01T18:07:16;99785.31;;;15.35;100.00
60015;BME280;45867;52.480;6.056;2023-08-01T18:09:46;99793.78;;;15.37;100.00
60015;BME280;45867;52.480;6.056;2023-08-01T18:12:17;99782.75;;;15.18;100.00
60015;BME280;45867;52.480;6.056;2023-08-01T18:14:45;99773.56;;;15.06;100.00
60015;BME280;45867;52.480;6.056;2023-08-01T18:17:20;99776.09;;;14.94;100.00
60015;BME280;45867;52.480;6.056;2023-08-01T18:20:17;99782.84;;;14.92;100.00
60015;BME280;45867;52.480;6.056;2023-08-01T18:23:17;99788.97;;;14.92;100.00
60015;BME280;45867;52.480;6.056;2023-08-01T18:25:44;99819.88;;;15.02;100.00
60015;BME280;45867;52.480;6.056;2023-08-01T18:28:13;99815.50;;;14.88;100.00
60015;BME280;45867;52.480;6.056;2023-08-01T18:31:18;99809.25;;;14.84;100.00
60015;BME280;45867;52.480;6.056;2023-08-01T18:34:02;99832.91;;;14.95;100.00
60015;BME280;45867;52.480;6.056;2023-08-01T18:36:34;99813.63;;;14.89;100.00
60015;BME280;45867;52.480;6.056;2023-08-01T18:42:30;99820.88;;;14.80;100.00
60015;BME280;45867;52.480;6.056;2023-08-01T18:45:03;99846.84;;;15.00;100.00
60015;BME280;45867;52.480;6.056;2023-08-01T18:47:38;99830.91;;;14.83;100.00
60015;BME280;45867;52.480;6.056;2023-08-01T18:50:34;99843.91;;;14.93;100.00
60015;BME280;45867;52.480;6.056;2023-08-01T18:53:12;99842.03;;;14.94;100.00
60015;BME280;45867;52.480;6.056;2023-08-01T18:56:12;99841.28;;;14.84;100.00
60015;BME280;45867;52.480;6.056;2023-08-01T18:58:43;99824.22;;;14.68;100.00
60015;BME280;45867;52.480;6.056;2023-08-01T19:01:42;99847.56;;;14.80;100.00
60015;BME280;45867;52.480;6.056;2023-08-01T19:04:21;99835.03;;;14.72;100.00
60015;BME280;45867;52.480;6.056;2023-08-01T19:07:06;99850.41;;;14.66;100.00
60015;BME280;45867;52.480;6.056;2023-08-01T19:09:46;99852.91;;;14.71;100.00
60015;BME280;45867;52.480;6.056;2023-08-01T19:12:52;99865.44;;;14.79;100.00
60015;BME280;45867;52.480;6.056;2023-08-01T19:15:49;99851.97;;;14.67;100.00
60015;BME280;45867;52.480;6.056;2023-08-01T19:22:36;99875.47;;;14.82;100.00
60015;BME280;45867;52.480;6.056;2023-08-01T19:25:32;99854.47;;;14.72;100.00
60015;BME280;45867;52.480;6.056;2023-08-01T19:31:38;99862.44;;;14.81;100.00
60015;BME280;45867;52.480;6.056;2023-08-01T19:34:04;99837.53;;;14.68;100.00
60015;BME280;45867;52.480;6.056;2023-08-01T19:36:44;99846.47;;;14.72;100.00
60015;BME280;45867;52.480;6.056;2023-08-01T19:43:14;99830.19;;;14.65;100.00
60015;BME280;45867;52.480;6.056;2023-08-01T19:45:57;99832.38;;;14.63;100.00
60015;BME280;45867;52.480;6.056;2023-08-01T19:48:41;99857.13;;;14.72;100.00
60015;BME280;45867;52.480;6.056;2023-08-01T19:51:07;99862.59;;;14.76;100.00
60015;BME280;45867;52.480;6.056;2023-08-01T19:53:36;99861.53;;;14.68;100.00
60015;BME280;45867;52.480;6.056;2023-08-01T19:56:06;99852.59;;;14.64;100.00
60015;BME280;45867;52.480;6.056;2023-08-01T19:58:33;99830.50;;;14.55;100.00
60015;BME280;45867;52.480;6.056;2023-08-01T20:01:20;99866.41;;;14.66;100.00
60015;BME280;45867;52.480;6.056;2023-08-01T20:03:47;99853.38;;;14.47;100.00
60015;BME280;45867;52.480;6.056;2023-08-01T20:06:21;99866.06;;;14.50;100.00
60015;BME280;45867;52.480;6.056;2023-08-01T20:08:48;99879.28;;;14.55;100.00
60015;BME280;45867;52.480;6.056;2023-08-01T20:11:26;99878.94;;;14.48;100.00
60015;BME280;45867;52.480;6.056;2023-08-01T20:13:55;99888.38;;;14.54;100.00
60015;BME280;45867;52.480;6.056;2023-08-01T20:16:22;99875.81;;;14.37;100.00
60015;BME280;45867;52.480;6.056;2023-08-01T20:18:51;99870.16;;;14.39;100.00
60015;BME280;45867;52.480;6.056;2023-08-01T20:21:22;99855.44;;;14.24;100.00
60015;BME280;45867;52.480;6.056;2023-08-01T20:24:00;99848.06;;;14.30;100.00
60015;BME280;45867;52.480;6.056;2023-08-01T20:26:33;99856.06;;;14.30;100.00
60015;BME280;45867;52.480;6.056;2023-08-01T20:29:05;99853.56;;;14.25;100.00
60015;BME280;45867;52.480;6.056;2023-08-01T20:31:32;99843.84;;;14.20;100.00
60015;BME280;45867;52.480;6.056;2023-08-01T20:34:04;99846.97;;;14.22;100.00
60015;BME280;45867;52.480;6.056;2023-08-01T20:36:40;99867.03;;;14.37;100.00
60015;BME280;45867;52.480;6.056;2023-08-01T20:39:14;99863.88;;;14.35;100.00
60015;BME280;45867;52.480;6.056;2023-08-01T20:41:50;99845.88;;;14.23;100.00
60015;BME280;45867;52.480;6.056;2023-08-01T20:44:21;99847.75;;;14.23;100.00
60015;BME280;45867;52.480;6.056;2023-08-01T20:47:04;99860.78;;;14.33;100.00
60015;BME280;45867;52.480;6.056;2023-08-01T20:49:36;99856.38;;;14.28;100.00
60015;BME280;45867;52.480;6.056;2023-08-01T20:52:11;99859.38;;;14.35;100.00
60015;BME280;45867;52.480;6.056;2023-08-01T20:54:59;99847.59;;;14.28;100.00
60015;BME280;45867;52.480;6.056;2023-08-01T20:57:37;99860.44;;;14.34;100.00
60015;BME280;45867;52.480;6.056;2023-08-01T21:00:09;99860.16;;;14.27;100.00
60015;BME280;45867;52.480;6.056;2023-08-01T21:02:48;99862.00;;;14.27;100.00
60015;BME280;45867;52.480;6.056;2023-08-01T21:05:15;99874.25;;;14.28;100.00
60015;BME280;45867;52.480;6.056;2023-08-01T21:08:01;99866.56;;;14.26;100.00
60015;BME280;45867;52.480;6.056;2023-08-01T21:10:34;99868.91;;;14.28;100.00
60015;BME280;45867;52.480;6.056;2023-08-01T21:13:31;99873.13;;;14.29;100.00
60015;BME280;45867;52.480;6.056;2023-08-01T21:16:21;99868.44;;;14.26;100.00
60015;BME280;45867;52.480;6.056;2023-08-01T21:19:00;99890.53;;;14.35;100.00
60015;BME280;45867;52.480;6.056;2023-08-01T21:21:32;99875.03;;;14.28;100.00
60015;BME280;45867;52.480;6.056;2023-08-01T21:24:05;99884.28;;;14.31;100.00